Latest Observation

42 Stations

15 Minute Data | America/Los_Angeles
as of 5/7/26 8:19 AM PDT
Station Date Time Temp (°F) RH (%) Dew Pt (°F) Wind Spd (mph) Wind Dir (°) Wind Gust (mph) Latest Rain (In) Daily Rain (In) Daily Min Temp (°F) Daily Max Temp (°F) Daily Max Wind (mph)
Elk Mt. Farm 5/7/26 0815 59.6   2.8 - - - - - - - 44.8   9.1 59.6   2.8 -
Upper Lake 5/7/26 0815 56.1   0.1 100   10 56.1   3.2 0.7 NE | 49 2.0   0.7 0.00 0.00 44.6   8.7 57.2   0.9 2.6   4.6
Scotts Valley 5/7/26 0815 58.4   2.5 86   1 54.4   2.1 0.1 W | 259 0.9   2.0 0.00 0.00 41.6   12.1 60.2   4.0 1.3   3.1
Scotts Valley-South (Bella Vista) 5/7/26 0815 58.1   2.5 84   2 53.4   3.0 0.0 SE | 141 0.9   1.4 0.00 0.00 46.1   7.2 60.0   4.0 3.5   1.9
Kelseyville 5/7/26 0815 56.9   0.1 91   6 54.4   1.9 0.1 SSE | 151 0.7   3.9 0.00 0.00 44.9   10.2 57.8   0.5 3.3   1.3
Kelseyville Remote 5/7/26 0815 58.9   1.1 82   6 53.5   3.0 - - - 0.00 0.00 46.2   9.5 58.9   1.1 -
Kelseyville (Clark Drive) 5/7/26 0815 56.6   1.0 - - - - - 0.00 0.00 45.7   9.9 57.6   0.3 -
Kelsey Bench (Oaklea) 5/7/26 0815 57.8   1.4 91   9 55.2   4.1 0.6 N | 8 4.4   4.4 0.00 0.00 48.3   5.3 58.1   1.6 4.4   4.4
Smith Lane (Kelseyville-South) 5/7/26 0815 59.7   2.1 89   5 56.4   3.6 3.4 NNE | 29 5.4   2.8 0.00 0.00 45.7   9.2 61.5   3.9 5.4   0.6
Bell Hill-West 5/7/26 0815 60.6   3.5 90   2 57.9   2.8 1.1 NE | 40 4.4   1.7 0.00 0.00 46.4   8.0 61.0   3.7 4.4   0.0
High Valley Ridgeline (Brassfield) 5/7/26 0815 59.5   6.0 85   11 55.0   2.7 3.4 E | 85 5.1   2.7 0.00 0.00 55.4   3.9 60.2   6.5 8.9   4.6
Wight Way (Adobe Creek) 5/7/26 0800 62.7   5.4 73   10 53.8   1.7 0.1 SE | 135 1.0   1.0 0.00 0.00 43.9   10.1 62.7   5.4 2.9   1.4
Ridgeline Top (Brassfield) 5/7/26 0815 62.2   7.8 - - - - - - - 55.5   4.0 62.8   8.1 -
Ridgeline Low (Brassfield) 5/7/26 0815 61.1   5.5 - - - - - - - 52.2   1.1 62.1   6.2 -
Long Valley (Shannon) 5/7/26 0645 47.3   9.5 98   4 46.9   8.2 0.1 ENE | 58 1.0   0.6 0.00 0.00 46.1   10.4 52.0   6.2 2.6   3.6
High Valley Winery 5/7/26 0815 62.8   5.4 76   6 55.3   3.1 0.1 NNW | 331 1.4   0.6 0.00 0.00 44.0   10.3 64.4   6.4 3.0   0.2
Round Mtn Rd. 5/7/26 0815 63.8   6.1 - - - - - - - 50.2   3.8 63.8   6.0 -
Circle O 5/7/26 0815 61.8   6.4 - - - - - - - 46.4   6.5 62.6   6.9 -
Robertsbridge Vineyards 5/7/26 0815 59.5   3.2 87   2 55.6   3.8 - - - - - 45.6   8.2 60.1   3.5 -
Urgency Vineyard 5/7/26 0815 63.5   6.9 77   10 56.1   3.3 2.7 NNE | 24 5.3   2.5 0.00 0.00 43.8   9.4 63.9   7.2 5.3   1.5
Red Hills (Beckstoffer) 5/7/26 0815 63.8   6.3 78   10 56.8   2.9 - - - 0.00 0.00 40.9   12.4 64.4   6.9 -
Winters (Shannon) 5/7/26 0815 62.0   6.1 77   7 54.7   3.4 1.3 N | 0 3.1   0.1 0.00 0.00 41.2   11.2 62.5   6.4 3.1   0.1
Secret Pond (Shannon) 5/7/26 0815 62.9   7.5 76   10 55.2   4.0 1.6 ESE | 107 6.6   3.9 0.00 0.00 43.7   8.4 63.7   8.3 6.6   3.1
Rolling Knolls (Shannon) 5/7/26 0815 55.8   2.3 98   14 55.1   1.9 0.0 N | 0 0.0   3.9 0.00 0.00 45.1   9.1 55.8   2.4 2.4   1.5
Lower Lake 5/7/26 0815 64.4   6.3 75   9 56.4   2.9 0.9 N | 8 3.2   0.4 0.00 0.00 50.7   3.4 64.6   6.5 4.3   0.8
Adamson Ranch 5/7/26 0815 59.7   0.7 86   0 55.6   0.7 1.0 SE | 131 2.0   0.2 0.00 0.00 45.4   9.5 59.7   0.7 2.0   0.4
Middletown (Diamond D) 5/7/26 0815 56.9   1.7 96   10 55.7   1.4 0.0 N | 0 0.0   2.1 0.00 0.00 47.0   8.8 57.7   1.1 4.6   1.2
Middletown-West (Domaine Helena) 5/7/26 0815 61.9   3.5 80   4 55.8   2.0 0.3 E | 86 1.5   0.0 0.00 0.00 42.8   11.3 62.1   3.5 3.2   0.2
Middletown-South 5/7/26 0815 61.1   2.3 78   2 54.3   1.4 1.0 NE | 46 2.5   0.1 0.00 0.00 47.4   7.4 61.6   2.3 2.5   0.2
Jim Davis (Langtry) 5/7/26 0815 58.0   0.7 95   8 56.6   1.7 1.7 WSW | 249 3.1   0.8 0.00 0.00 50.4   5.0 58.0   0.7 4.7   1.3
Napa Valley Basin 5/7/26 0815 56.1   3.2 98   14 55.7   1.2 1.0 SSE | 167 2.1   0.3 0.00 0.00 47.6   8.6 57.4   2.2 3.7   0.1
Lower Bohn 5/7/26 0815 59.5   0.7 97   14 58.7   3.7 0.1 NW | 307 0.9   0.8 0.00 0.00 43.7   10.1 61.0   0.3 2.6   0.1
Upper Bohn-North 5/7/26 0815 59.2   0.1 100   18 59.2   5.5 0.9 NNW | 327 3.1   1.0 0.00 0.00 49.8   5.7 59.4   0.3 3.1   0.1
Snell Peak Blk#9 5/7/26 0815 61.9   2.4 83   2 56.7   3.0 1.8 NNE | 19 3.9   0.4 0.00 0.00 51.7   3.6 62.0   2.4 3.9   0.4
Coyote Lake West 5/7/26 0815 60.0   1.1 88   6 56.4   2.9 1.5 E | 92 3.7   1.2 0.00 0.00 50.8   5.3 60.6   1.3 3.7   0.5
Coyote Lake Northeast 5/7/26 0815 59.5   0.2 88   5 56.0   1.7 - - - - - 51.8   4.4 59.5   0.2 -
Coyote Lake East 5/7/26 0815 59.2   1.1 91   10 56.5   2.1 - - - - - 48.3   8.5 59.2   1.1 -
Morgan Valley 5/7/26 0815 63.2   7.3 81   7 57.3   4.9 3.4 NE | 39 7.8   2.0 0.00 0.00 55.5   4.5 63.3   7.3 7.8   2.0
Mine Pit North 5/7/26 0815 59.3   3.6 81   2 53.6   2.9 5.1 NE | 49 8.6   4.5 - - 52.7   0.6 60.5   4.1 8.6   3.7
Mine Pit South 5/7/26 0815 60.6   4.5 84   5 55.8   2.8 10.8 N | 7 15.6   6.3 0.00 0.00 55.1   3.8 61.7   5.1 15.6   6.0
Cow Mountain 5/7/26 0815 60.2   10.9 - - 8.2 E | 97 13.6   6.8 0.00 0.00 55.1   7.7 64.3   14.5 15.6   4.4
Ukiah-SE (Ruddick) 5/7/26 0815 51.5   5.4 96   19 50.2   0.5 1.3 NW | 318 3.5   1.4 0.00 0.00 46.9   7.6 52.7   4.7 4.0   2.5
Max     64.4 100 59.2 10.8 - 15.6 0.00 0.00 55.5 64.6 15.6
Avg     59.9 86 55.6 1.8 - 3.9 0.00 - - - -
Min     51.5 73 50.2 0.0 - 0.0 0.00 0.00 40.9 52.7 1.3